West Corners, New York
Current Conditions -  °F | °C
As of 9:23 AM on Friday 24 Oct 2014 (Local Time) from KBGM Reporting Station
Scattered Clouds Scattered Clouds  
Wind Chill: 43°   Ceiling: Unl
Heat Index: 48°   Visibility: 10mi
Dew Point: 43°   Wind: 10mph
Humidity: 83%   Direction: 330°NNW
Pressure: 29.92"   Gusts: NA
Location:  42.1332°N, 76.0798°W
Report Text: KBGM 241323Z 33009KT 10SM SCT011 09/06 A2992 RMK AO2 T00890061
Loading
Personal Weather Stations






























Interactive Weather Map
Tropical Storm Tracking
New forecast layout! Learn more

10-Day Weather Forecast

Advertisements
Track Severe Weather on mobile